Monday, July 23, 2018, 7:48 AM EDT
Back to Local

KDOV, Dover Air Force Base

Location: Dover, DE, United States Lat: 39.133
Local Time: 7:48 AM EDT (11:48 GMT) Lon: -75.467
Time Zone: US/Eastern Elev: 29 ft

Show me the last for .
Show Decoded

2018-07-23 07:02 METAR KDOV 231102Z AUTO 12012KT 10SM BKN014 24/23 A2996 RMK AO2 SLP148 TSNO $ =
2018-07-23 06:57 METAR KDOV 231057Z AUTO 12011KT 10SM BKN016 24/23 A2996 RMK AO2 CIG 016V023 BKN
                 V SCT SLP148 T02430225 TSNO $ =
2018-07-23 06:54 METAR KDOV 231054Z 11012KT 10SM BKN016 OVC080 24/23 A2996 RMK AO2A CIG 016V023
                 BKN V SCT SLP148 TSNO $ =
2018-07-23 06:39 METAR KDOV 231039Z 12010KT 10SM SCT016 BKN023 OVC100 24/23 A2996 RMK AO2A SLP148
                 TSNO $ =
2018-07-23 06:23 METAR KDOV 231023Z 12014G20KT 10SM SCT014 BKN021 24/23 A2995 RMK AO2A CIG
                 015V021 SLP145 TSNO $ =
2018-07-23 06:13 METAR KDOV 231013Z AUTO 12015G21KT 9SM FEW010 BKN015 24/23 A2995 RMK AO2 SLP145
                 TSNO $ =
2018-07-23 06:03 METAR KDOV 231003Z AUTO 12012G20KT 8SM SCT010 OVC013 24/23 A2995 RMK AO2 SLP145
                 TSNO $ =
2018-07-23 05:56 METAR KDOV 230956Z AUTO 12016KT 7SM OVC014 25/23 A2994 RMK AO2 SLP142 T02450234
                 TSNO $ =
2018-07-23 05:44 METAR KDOV 230944Z AUTO 11012KT 7SM FEW006 OVC014 25/24 A2995 RMK AO2 SLP145
                 TSNO $ =
2018-07-23 05:41 METAR KDOV 230941Z AUTO 11012KT 7SM OVC014 25/24 A2995 RMK AO2 SLP145 TSNO $ =
2018-07-23 05:11 METAR KDOV 230911Z AUTO 12011KT 8SM FEW006 BKN016 OVC024 25/24 A2994 RMK AO2 CIG
                 015 RWY19 SLP142 TSNO $ =
2018-07-23 05:01 METAR KDOV 230901Z AUTO 11013KT 8SM SCT006 BKN014 OVC022 25/24 A2994 RMK AO2 CIG
                 014V019 CIG 012 RWY19 SLP142 TSNO $ =
2018-07-23 04:56 METAR KDOV 230856Z AUTO 11012KT 8SM FEW008 BKN015 OVC022 25/24 A2993 RMK AO2 CIG
                 015V019 CIG 012 RWY19 SLP138 T02500241 53006 TSNO $ =
2018-07-23 04:23 METAR KDOV 230823Z AUTO 11009KT 8SM FEW010 BKN015 25/24 A2992 RMK AO2 CIG 005
                 RWY19 SLP135 TSNO $ =
2018-07-23 04:06 METAR KDOV 230806Z AUTO 12010KT 9SM BKN015 25/24 A2992 RMK AO2 SLP135 TSNO $ =
2018-07-23 03:56 METAR KDOV 230756Z AUTO 11009KT 9SM BKN013 25/24 A2992 RMK AO2 BKN V OVC SLP135
                 T02510240 TSNO $ =
2018-07-23 03:36 METAR KDOV 230736Z AUTO 11008KT 9SM FEW008 BKN014 25/24 A2992 RMK AO2 SLP135
                 TSNO $ =
2018-07-23 03:01 METAR KDOV 230701Z AUTO 12008KT 9SM FEW008 BKN015 25/24 A2991 RMK AO2 SLP131
                 TSNO $ =
2018-07-23 02:56 METAR KDOV 230656Z AUTO 12009KT 9SM FEW008 BKN013 BKN018 25/24 A2991 RMK AO2
                 SLP131 T02500238 TSNO $ =
2018-07-23 02:48 METAR KDOV 230648Z AUTO 12010KT 10SM FEW007 BKN013 25/24 A2991 RMK AO2 SLP131
                 TSNO $ =
2018-07-23 02:23 METAR KDOV 230623Z AUTO 12010KT 9SM FEW007 OVC015 25/24 A2992 RMK AO2 CIG 007
                 RWY19 SLP135 TSNO $ =
2018-07-23 02:18 METAR KDOV 230618Z AUTO 12009KT 9SM FEW007 OVC014 25/24 A2992 RMK AO2 CIG 007
                 RWY19 SLP135 TSNO $ =
2018-07-23 01:56 METAR KDOV 230556Z AUTO 11007KT 10SM OVC013 25/24 A2992 RMK AO2 SLP135 T02510239
                 10254 20249 58004 TSNO $ =
2018-07-23 01:26 METAR KDOV 230526Z AUTO 12008KT 10SM BKN014 BKN020 25/24 A2993 RMK AO2 CIG
                 014V018 SLP138 TSNO $ =
2018-07-23 00:56 METAR KDOV 230456Z AUTO 12010KT 10SM BKN017 BKN022 25/24 A2994 RMK AO2 SLP142
                 T02520236 402830200 TSNO $ =
2018-07-23 00:51 METAR KDOV 230451Z AUTO 12008KT 10SM BKN017 BKN022 25/24 A2994 RMK AO2 CIG
                 017V021 SLP142 TSNO $ =
2018-07-23 00:41 METAR KDOV 230441Z AUTO 12009KT 10SM BKN019 BKN029 25/24 A2993 RMK AO2 CIG
                 019V036 BKN019 V SCT SLP138 TSNO $ =
2018-07-22 23:56 METAR KDOV 230356Z AUTO 12012KT 10SM FEW007 FEW021 BKN038 25/24 A2994 RMK AO2
                 SLP142 T02520240 TSNO $ =
2018-07-22 23:46 METAR KDOV 230346Z AUTO 12011KT 9SM SCT007 SCT036 25/24 A2994 RMK AO2 SLP142
                 TSNO $ =
2018-07-22 23:06 METAR KDOV 230306Z AUTO 11013KT 8SM BKN007 OVC017 25/24 A2993 RMK AO2 CIG
                 007V017 CIG 006 RWY19 SLP138 TSNO $ =
2018-07-22 22:56 METAR KDOV 230256Z AUTO 11012KT 8SM SCT006 OVC017 25/24 A2993 RMK AO2 CIG 006
                 RWY19 SLP138 T02500239 51018 TSNO $ =
2018-07-22 21:56 METAR KDOV 230156Z AUTO 11010KT 7SM SCT007 BKN017 25/24 A2992 RMK AO2 CIG 005
                 RWY19 SLP135 T02530242 $ =
2018-07-22 21:46 METAR KDOV 230146Z AUTO 11008KT 9SM FEW007 FEW014 25/24 A2992 RMK AO2 SLP135 $ =
2018-07-22 20:56 METAR KDOV 230056Z AUTO 13008KT 10SM CLR 25/24 A2990 RMK AO2 SLP128 T02520240 $
                 =
2018-07-22 19:56 METAR KDOV 222356Z AUTO 12011KT 7SM FEW008 25/24 A2987 RMK AO2 RAB23E33 SLP118
                 P0000 60000 T02520241 10283 20252 52012 $ =
2018-07-22 19:34 METAR KDOV 222334Z AUTO 11012G18KT 7SM FEW009 FEW019 25/24 A2987 RMK AO2
                 RAB23E33 SLP118 $ =
2018-07-22 19:33 METAR KDOV 222333Z AUTO 11011G18KT 7SM FEW012 FEW019 25/24 A2987 RMK AO2
                 RAB23E33 SLP118 $ =
2018-07-22 19:23 METAR KDOV 222323Z AUTO 12011KT 8SM -RA FEW012 FEW019 SCT028 26/24 A2987 RMK AO2
                 RAB23 SLP118 $ =
2018-07-22 19:08 METAR KDOV 222308Z AUTO 11013KT 9SM FEW008 FEW050 26/24 A2987 RMK AO2 SLP118 $ =
2018-07-22 18:56 METAR KDOV 222256Z AUTO 12012KT 10SM CLR 26/24 A2987 RMK AO2 SLP118 T02570239 $
                 =
2018-07-22 17:56 METAR KDOV 222156Z AUTO 11016G22KT 10SM CLR 27/24 A2985 RMK AO2 SLP111 T02730243
                 $ =
2018-07-22 16:56 METAR KDOV 222056Z AUTO 11018G23KT 10SM CLR 28/24 A2984 RMK AO2 SLP108 T02760238
                 55003 $ =
2018-07-22 15:56 METAR KDOV 221956Z AUTO 11019G26KT 10SM FEW120 27/24 A2984 RMK AO2 PK WND
                 11026/48 SLP108 T02740238 $ =
2018-07-22 14:56 METAR KDOV 221856Z AUTO 11017G24KT 10SM FEW008 28/24 A2983 RMK AO2 SLP104
                 T02790241 $ =
2018-07-22 14:41 METAR KDOV 221841Z AUTO 11016G23KT 10SM SCT008 28/24 A2983 RMK AO2 SLP104 $ =
2018-07-22 14:31 METAR KDOV 221831Z AUTO 10017G24KT 10SM BKN008 28/24 A2983 RMK AO2 CIG 007 RWY19
                 SLP104 $ =
2018-07-22 14:16 METAR KDOV 221816Z AUTO 10016G21KT 10SM BKN007 27/24 A2984 RMK AO2 CIG 007V009
                 SLP108 $ =
2018-07-22 14:01 METAR KDOV 221801Z AUTO 11015G21KT 10SM BKN009 27/24 A2985 RMK AO2 BKN V SCT CIG
                 008 RWY19 SLP111 $ =
2018-07-22 13:56 METAR KDOV 221756Z AUTO 10017G21KT 10SM BKN009 27/24 A2985 RMK AO2 CIG 008 RWY19
                 SLP111 T02710237 10274 20201 58006 $ =
2018-07-22 13:46 METAR KDOV 221746Z AUTO 10015KT 10SM BKN009 27/24 A2985 RMK AO2 BKN V SCT SLP111
                 $ =
2018-07-22 13:16 METAR KDOV 221716Z AUTO 10019KT 10SM FEW009 27/24 A2985 RMK AO2 SLP111 $ =
2018-07-22 12:56 METAR KDOV 221656Z AUTO 10016KT 10SM CLR 27/23 A2986 RMK AO2 SLP115 T02720230 $
                 =
2018-07-22 11:56 METAR KDOV 221556Z AUTO 09014KT 10SM CLR 26/23 A2987 RMK AO2 SLP118 T02630227 $
                 =
2018-07-22 11:41 METAR KDOV 221541Z AUTO 09013KT 10SM SCT022 SCT029 26/22 A2987 RMK AO2 SLPNO $ =
2018-07-22 11:21 METAR KDOV 221521Z AUTO 09012KT 10SM SCT022 BKN028 25/22 A2988 RMK AO2 CIG 022
                 RWY19 SLPNO $ =
2018-07-22 10:56 METAR KDOV 221456Z AUTO 08011KT 10SM FEW020 SCT031 26/22 A2987 RMK AO2 SLPNO
                 T02610217 51009 $ =
2018-07-22 09:56 METAR KDOV 221356Z AUTO 17005KT 10SM FEW012 24/21 A2987 RMK AO2 SLPNO T02370206
                 $ =
2018-07-22 09:36 METAR KDOV 221336Z AUTO 18004KT 10SM SCT011 23/20 A2987 RMK AO2 SLP118 $ =
2018-07-22 09:16 METAR KDOV 221316Z AUTO 16007KT 10SM OVC011 22/20 A2986 RMK AO2 SLP115 $ =
2018-07-22 09:06 METAR KDOV 221306Z AUTO 15006KT 10SM OVC013 22/20 A2986 RMK AO2 CIG 011 RWY19
                 SLP115 $ =
2018-07-22 08:56 METAR KDOV 221256Z AUTO 16006KT 10SM OVC011 22/20 A2986 RMK AO2 SLP115 T02150199
                 $ =
2018-07-22 08:51 METAR KDOV 221251Z AUTO 16007KT 10SM OVC011 21/20 A2986 RMK AO2 SLP115 $ =
2018-07-22 08:31 METAR KDOV 221231Z AUTO 18009KT 10SM BKN009 OVC013 21/20 A2985 RMK AO2 SLPNO $ =
2018-07-22 08:26 METAR KDOV 221226Z AUTO 18009KT 10SM OVC010 21/20 A2985 RMK AO2 CIG 009 RWY19
                 SLPNO $ =
2018-07-22 08:06 METAR KDOV 221206Z AUTO 19008KT 10SM OVC009 21/20 A2984 RMK AO2 CIG 006V009 CIG
                 006 RWY19 SLPNO $ =
2018-07-22 08:01 METAR KDOV 221201Z AUTO 17009KT 10SM BKN006 OVC010 20/19 A2984 RMK AO2 BKN V OVC
                 SLPNO $ =
2018-07-22 07:56 METAR KDOV 221156Z AUTO 18009KT 10SM OVC007 20/19 A2984 RMK AO2 CIG 006 RWY19
                 SLPNO 60002 7//// T02000192 10230 20200 52043 $ =

Support USWX by starting your Amazon purchase here.